sensor_id;sensor_type;location;lat;lon;timestamp;P1;durP1;ratioP1;P2;durP2;ratioP2
9228;SDS011;4649;42.644;23.284;2023-05-27T00:02:31;4.50;;;4.20;;
9228;SDS011;4649;42.644;23.284;2023-05-27T00:05:02;4.93;;;4.63;;
9228;SDS011;4649;42.644;23.284;2023-05-27T00:07:32;6.00;;;5.60;;
9228;SDS011;4649;42.644;23.284;2023-05-27T01:25:42;2.00;;;1.73;;
9228;SDS011;4649;42.644;23.284;2023-05-27T01:28:16;2.17;;;2.07;;
9228;SDS011;4649;42.644;23.284;2023-05-27T01:30:44;2.27;;;2.17;;
9228;SDS011;4649;42.644;23.284;2023-05-27T01:33:13;2.50;;;2.40;;
9228;SDS011;4649;42.644;23.284;2023-05-27T01:35:59;2.37;;;2.27;;
9228;SDS011;4649;42.644;23.284;2023-05-27T01:41:37;2.30;;;2.20;;
9228;SDS011;4649;42.644;23.284;2023-05-27T01:44:27;6.03;;;2.50;;
9228;SDS011;4649;42.644;23.284;2023-05-27T01:47:02;2.30;;;2.20;;
9228;SDS011;4649;42.644;23.284;2023-05-27T01:49:34;3.50;;;2.37;;
9228;SDS011;4649;42.644;23.284;2023-05-27T01:52:15;2.40;;;2.30;;
9228;SDS011;4649;42.644;23.284;2023-05-27T01:54:50;2.70;;;2.60;;
9228;SDS011;4649;42.644;23.284;2023-05-27T01:57:21;4.67;;;2.33;;
9228;SDS011;4649;42.644;23.284;2023-05-27T01:59:54;3.20;;;3.00;;
9228;SDS011;4649;42.644;23.284;2023-05-27T02:02:36;2.57;;;2.47;;
9228;SDS011;4649;42.644;23.284;2023-05-27T03:06:16;3.17;;;2.97;;
9228;SDS011;4649;42.644;23.284;2023-05-27T03:08:55;2.83;;;2.40;;
9228;SDS011;4649;42.644;23.284;2023-05-27T03:12:11;2.70;;;2.60;;
9228;SDS011;4649;42.644;23.284;2023-05-27T03:15:17;3.07;;;2.87;;
9228;SDS011;4649;42.644;23.284;2023-05-27T03:34:22;3.22;;;3.03;;
9228;SDS011;4649;42.644;23.284;2023-05-27T03:36:52;2.90;;;2.80;;
9228;SDS011;4649;42.644;23.284;2023-05-27T03:39:19;2.87;;;2.73;;
9228;SDS011;4649;42.644;23.284;2023-05-27T03:42:11;2.90;;;2.80;;
9228;SDS011;4649;42.644;23.284;2023-05-27T03:45:05;2.60;;;2.50;;
9228;SDS011;4649;42.644;23.284;2023-05-27T03:47:47;3.00;;;2.80;;
9228;SDS011;4649;42.644;23.284;2023-05-27T03:50:22;2.90;;;2.80;;
9228;SDS011;4649;42.644;23.284;2023-05-27T03:52:52;2.47;;;2.37;;
9228;SDS011;4649;42.644;23.284;2023-05-27T03:55:34;2.63;;;2.53;;
9228;SDS011;4649;42.644;23.284;2023-05-27T03:58:17;2.93;;;2.83;;
9228;SDS011;4649;42.644;23.284;2023-05-27T04:00:45;2.67;;;2.57;;
9228;SDS011;4649;42.644;23.284;2023-05-27T04:03:27;3.03;;;2.90;;
9228;SDS011;4649;42.644;23.284;2023-05-27T04:05:59;3.00;;;2.90;;
9228;SDS011;4649;42.644;23.284;2023-05-27T04:08:28;3.07;;;2.97;;
9228;SDS011;4649;42.644;23.284;2023-05-27T04:10:58;6.40;;;2.90;;
9228;SDS011;4649;42.644;23.284;2023-05-27T04:13:32;2.40;;;2.30;;
9228;SDS011;4649;42.644;23.284;2023-05-27T04:16:20;2.47;;;2.37;;
9228;SDS011;4649;42.644;23.284;2023-05-27T04:18:51;2.30;;;2.20;;
9228;SDS011;4649;42.644;23.284;2023-05-27T04:21:23;3.20;;;2.90;;
9228;SDS011;4649;42.644;23.284;2023-05-27T04:24:04;2.30;;;2.20;;
9228;SDS011;4649;42.644;23.284;2023-05-27T04:26:33;2.60;;;2.50;;
9228;SDS011;4649;42.644;23.284;2023-05-27T04:29:11;2.80;;;2.70;;
9228;SDS011;4649;42.644;23.284;2023-05-27T04:31:48;5.73;;;2.70;;
9228;SDS011;4649;42.644;23.284;2023-05-27T04:34:19;2.80;;;2.60;;
9228;SDS011;4649;42.644;23.284;2023-05-27T04:37:04;3.23;;;3.03;;
9228;SDS011;4649;42.644;23.284;2023-05-27T04:39:35;2.80;;;2.70;;
9228;SDS011;4649;42.644;23.284;2023-05-27T04:42:11;4.17;;;2.90;;
9228;SDS011;4649;42.644;23.284;2023-05-27T04:44:43;3.67;;;3.43;;
9228;SDS011;4649;42.644;23.284;2023-05-27T04:47:16;2.90;;;2.80;;
9228;SDS011;4649;42.644;23.284;2023-05-27T04:49:47;3.10;;;2.90;;
9228;SDS011;4649;42.644;23.284;2023-05-27T04:52:22;4.10;;;2.43;;
9228;SDS011;4649;42.644;23.284;2023-05-27T04:54:50;2.83;;;2.60;;
9228;SDS011;4649;42.644;23.284;2023-05-27T04:57:23;3.63;;;3.43;;
9228;SDS011;4649;42.644;23.284;2023-05-27T04:59:52;2.97;;;2.83;;
9228;SDS011;4649;42.644;23.284;2023-05-27T05:02:39;2.83;;;2.63;;
9228;SDS011;4649;42.644;23.284;2023-05-27T05:09:11;4.30;;;2.20;;
9228;SDS011;4649;42.644;23.284;2023-05-27T05:11:52;2.60;;;2.50;;
9228;SDS011;4649;42.644;23.284;2023-05-27T05:14:41;2.23;;;2.00;;
9228;SDS011;4649;42.644;23.284;2023-05-27T05:17:27;2.43;;;2.33;;
9228;SDS011;4649;42.644;23.284;2023-05-27T05:22:42;3.13;;;2.93;;
9228;SDS011;4649;42.644;23.284;2023-05-27T05:26:10;2.27;;;2.17;;
9228;SDS011;4649;42.644;23.284;2023-05-27T05:28:43;2.63;;;2.43;;
9228;SDS011;4649;42.644;23.284;2023-05-27T05:31:27;2.60;;;2.50;;
9228;SDS011;4649;42.644;23.284;2023-05-27T05:34:24;7.60;;;7.00;;
9228;SDS011;4649;42.644;23.284;2023-05-27T05:37:01;9.87;;;8.53;;
9228;SDS011;4649;42.644;23.284;2023-05-27T05:39:43;2.70;;;2.47;;
9228;SDS011;4649;42.644;23.284;2023-05-27T05:45:16;3.63;;;3.43;;
9228;SDS011;4649;42.644;23.284;2023-05-27T05:47:47;3.10;;;2.80;;
9228;SDS011;4649;42.644;23.284;2023-05-27T05:50:27;2.67;;;2.57;;
9228;SDS011;4649;42.644;23.284;2023-05-27T05:53:09;2.00;;;1.90;;
9228;SDS011;4649;42.644;23.284;2023-05-27T05:56:13;2.83;;;2.73;;
9228;SDS011;4649;42.644;23.284;2023-05-27T05:58:48;7.70;;;3.20;;
9228;SDS011;4649;42.644;23.284;2023-05-27T06:11:22;2.50;;;2.40;;
9228;SDS011;4649;42.644;23.284;2023-05-27T06:13:51;2.40;;;2.30;;
9228;SDS011;4649;42.644;23.284;2023-05-27T06:16:19;2.80;;;2.70;;
9228;SDS011;4649;42.644;23.284;2023-05-27T06:18:48;3.60;;;3.10;;
9228;SDS011;4649;42.644;23.284;2023-05-27T06:21:17;4.60;;;3.17;;
9228;SDS011;4649;42.644;23.284;2023-05-27T06:23:47;5.40;;;5.00;;
9228;SDS011;4649;42.644;23.284;2023-05-27T06:26:26;3.60;;;3.30;;
9228;SDS011;4649;42.644;23.284;2023-05-27T06:28:53;3.57;;;3.37;;
9228;SDS011;4649;42.644;23.284;2023-05-27T06:31:20;5.10;;;3.53;;
9228;SDS011;4649;42.644;23.284;2023-05-27T06:33:47;3.77;;;3.47;;
9228;SDS011;4649;42.644;23.284;2023-05-27T06:36:15;3.83;;;3.63;;
9228;SDS011;4649;42.644;23.284;2023-05-27T06:38:45;3.60;;;3.30;;
9228;SDS011;4649;42.644;23.284;2023-05-27T06:41:12;22.43;;;7.20;;
9228;SDS011;4649;42.644;23.284;2023-05-27T06:43:41;5.20;;;4.80;;
9228;SDS011;4649;42.644;23.284;2023-05-27T06:46:11;3.53;;;3.33;;
9228;SDS011;4649;42.644;23.284;2023-05-27T06:48:38;4.00;;;3.70;;
9228;SDS011;4649;42.644;23.284;2023-05-27T06:51:05;3.90;;;3.70;;
9228;SDS011;4649;42.644;23.284;2023-05-27T06:53:32;3.57;;;3.37;;
9228;SDS011;4649;42.644;23.284;2023-05-27T06:56:14;3.27;;;3.17;;
9228;SDS011;4649;42.644;23.284;2023-05-27T06:59:10;5.37;;;3.63;;
9228;SDS011;4649;42.644;23.284;2023-05-27T07:01:48;3.63;;;3.33;;
9228;SDS011;4649;42.644;23.284;2023-05-27T07:04:50;3.27;;;3.07;;
9228;SDS011;4649;42.644;23.284;2023-05-27T07:07:20;3.57;;;3.37;;
9228;SDS011;4649;42.644;23.284;2023-05-27T07:18:22;3.40;;;3.20;;
9228;SDS011;4649;42.644;23.284;2023-05-27T07:20:49;3.93;;;2.80;;
9228;SDS011;4649;42.644;23.284;2023-05-27T07:23:16;3.10;;;2.90;;
9228;SDS011;4649;42.644;23.284;2023-05-27T07:25:43;3.10;;;3.00;;
9228;SDS011;4649;42.644;23.284;2023-05-27T07:28:10;3.47;;;3.17;;
9228;SDS011;4649;42.644;23.284;2023-05-27T07:30:37;4.57;;;4.13;;
9228;SDS011;4649;42.644;23.284;2023-05-27T07:33:05;4.57;;;4.07;;
9228;SDS011;4649;42.644;23.284;2023-05-27T07:35:39;7.80;;;3.70;;
9228;SDS011;4649;42.644;23.284;2023-05-27T07:38:07;3.43;;;3.23;;
9228;SDS011;4649;42.644;23.284;2023-05-27T07:40:34;3.17;;;3.00;;
9228;SDS011;4649;42.644;23.284;2023-05-27T07:43:02;3.47;;;3.27;;
9228;SDS011;4649;42.644;23.284;2023-05-27T07:45:28;6.10;;;3.60;;
9228;SDS011;4649;42.644;23.284;2023-05-27T07:47:55;3.80;;;3.03;;
9228;SDS011;4649;42.644;23.284;2023-05-27T07:50:22;6.70;;;3.60;;
9228;SDS011;4649;42.644;23.284;2023-05-27T07:52:53;3.40;;;3.20;;
9228;SDS011;4649;42.644;23.284;2023-05-27T07:55:20;3.70;;;3.37;;
9228;SDS011;4649;42.644;23.284;2023-05-27T07:57:47;3.13;;;2.90;;
9228;SDS011;4649;42.644;23.284;2023-05-27T08:00:14;2.50;;;2.40;;
9228;SDS011;4649;42.644;23.284;2023-05-27T08:02:42;2.60;;;2.33;;
9228;SDS011;4649;42.644;23.284;2023-05-27T08:05:09;5.20;;;2.30;;
9228;SDS011;4649;42.644;23.284;2023-05-27T08:07:36;2.60;;;2.40;;
9228;SDS011;4649;42.644;23.284;2023-05-27T08:10:05;3.10;;;3.00;;
9228;SDS011;4649;42.644;23.284;2023-05-27T08:12:34;4.93;;;3.63;;
9228;SDS011;4649;42.644;23.284;2023-05-27T08:15:01;2.87;;;2.67;;
9228;SDS011;4649;42.644;23.284;2023-05-27T08:17:28;6.23;;;2.87;;
9228;SDS011;4649;42.644;23.284;2023-05-27T08:19:55;2.70;;;2.60;;
9228;SDS011;4649;42.644;23.284;2023-05-27T08:22:22;2.43;;;2.33;;
9228;SDS011;4649;42.644;23.284;2023-05-27T08:24:50;2.90;;;2.60;;
9228;SDS011;4649;42.644;23.284;2023-05-27T08:27:18;2.30;;;2.20;;
9228;SDS011;4649;42.644;23.284;2023-05-27T08:29:46;3.10;;;2.90;;
9228;SDS011;4649;42.644;23.284;2023-05-27T08:32:13;4.27;;;3.97;;
9228;SDS011;4649;42.644;23.284;2023-05-27T08:34:40;3.97;;;3.00;;
9228;SDS011;4649;42.644;23.284;2023-05-27T08:37:07;4.37;;;3.13;;
9228;SDS011;4649;42.644;23.284;2023-05-27T08:39:34;3.10;;;3.00;;
9228;SDS011;4649;42.644;23.284;2023-05-27T08:57:21;4.17;;;2.97;;
9228;SDS011;4649;42.644;23.284;2023-05-27T09:08:03;3.77;;;3.43;;
9228;SDS011;4649;42.644;23.284;2023-05-27T10:30:06;4.37;;;4.00;;
9228;SDS011;4649;42.644;23.284;2023-05-27T10:33:47;3.37;;;3.17;;
9228;SDS011;4649;42.644;23.284;2023-05-27T10:39:54;4.07;;;3.40;;
9228;SDS011;4649;42.644;23.284;2023-05-27T10:42:28;3.80;;;3.60;;
9228;SDS011;4649;42.644;23.284;2023-05-27T10:45:03;4.50;;;4.20;;
9228;SDS011;4649;42.644;23.284;2023-05-27T10:47:38;5.43;;;3.60;;
9228;SDS011;4649;42.644;23.284;2023-05-27T10:50:10;4.60;;;4.40;;
9228;SDS011;4649;42.644;23.284;2023-05-27T10:53:15;3.80;;;3.60;;
9228;SDS011;4649;42.644;23.284;2023-05-27T10:56:20;4.03;;;3.83;;
9228;SDS011;4649;42.644;23.284;2023-05-27T11:01:44;8.83;;;3.93;;
9228;SDS011;4649;42.644;23.284;2023-05-27T11:04:17;3.53;;;3.33;;
9228;SDS011;4649;42.644;23.284;2023-05-27T11:06:59;3.83;;;3.63;;
9228;SDS011;4649;42.644;23.284;2023-05-27T11:09:45;4.57;;;3.50;;
9228;SDS011;4649;42.644;23.284;2023-05-27T11:12:24;4.27;;;3.87;;
9228;SDS011;4649;42.644;23.284;2023-05-27T11:14:55;4.23;;;3.73;;
9228;SDS011;4649;42.644;23.284;2023-05-27T11:23:19;3.63;;;3.40;;
9228;SDS011;4649;42.644;23.284;2023-05-27T11:26:27;3.90;;;3.63;;
9228;SDS011;4649;42.644;23.284;2023-05-27T11:29:11;7.13;;;3.90;;
9228;SDS011;4649;42.644;23.284;2023-05-27T11:32:15;4.43;;;3.70;;
9228;SDS011;4649;42.644;23.284;2023-05-27T11:34:46;4.73;;;4.37;;
9228;SDS011;4649;42.644;23.284;2023-05-27T11:53:15;3.57;;;3.37;;
9228;SDS011;4649;42.644;23.284;2023-05-27T11:56:00;4.57;;;3.97;;
9228;SDS011;4649;42.644;23.284;2023-05-27T11:58:30;3.93;;;3.73;;
9228;SDS011;4649;42.644;23.284;2023-05-27T12:01:20;4.07;;;3.77;;
9228;SDS011;4649;42.644;23.284;2023-05-27T12:04:12;3.77;;;3.57;;
9228;SDS011;4649;42.644;23.284;2023-05-27T12:06:56;3.73;;;3.23;;
9228;SDS011;4649;42.644;23.284;2023-05-27T12:12:32;4.00;;;3.43;;
9228;SDS011;4649;42.644;23.284;2023-05-27T12:15:28;4.17;;;3.77;;
9228;SDS011;4649;42.644;23.284;2023-05-27T12:18:13;4.07;;;3.77;;
9228;SDS011;4649;42.644;23.284;2023-05-27T12:24:00;3.20;;;3.00;;
9228;SDS011;4649;42.644;23.284;2023-05-27T12:26:45;3.57;;;3.30;;
9228;SDS011;4649;42.644;23.284;2023-05-27T12:29:34;4.67;;;3.07;;
9228;SDS011;4649;42.644;23.284;2023-05-27T12:32:04;5.00;;;3.97;;
9228;SDS011;4649;42.644;23.284;2023-05-27T12:34:41;3.47;;;3.13;;
9228;SDS011;4649;42.644;23.284;2023-05-27T12:37:11;4.60;;;3.47;;
9228;SDS011;4649;42.644;23.284;2023-05-27T12:40:09;3.27;;;3.17;;
9228;SDS011;4649;42.644;23.284;2023-05-27T12:42:52;3.20;;;3.10;;
9228;SDS011;4649;42.644;23.284;2023-05-27T12:45:30;3.57;;;3.37;;
9228;SDS011;4649;42.644;23.284;2023-05-27T12:48:07;3.83;;;3.67;;
9228;SDS011;4649;42.644;23.284;2023-05-27T12:50:37;3.13;;;3.03;;
9228;SDS011;4649;42.644;23.284;2023-05-27T12:53:20;5.10;;;4.00;;
9228;SDS011;4649;42.644;23.284;2023-05-27T12:55:51;3.03;;;2.93;;
9228;SDS011;4649;42.644;23.284;2023-05-27T13:01:39;3.60;;;3.30;;
9228;SDS011;4649;42.644;23.284;2023-05-27T13:04:14;3.30;;;3.10;;
9228;SDS011;4649;42.644;23.284;2023-05-27T13:06:42;4.37;;;4.03;;
9228;SDS011;4649;42.644;23.284;2023-05-27T13:09:11;3.77;;;3.40;;
9228;SDS011;4649;42.644;23.284;2023-05-27T13:11:41;3.50;;;3.30;;
9228;SDS011;4649;42.644;23.284;2023-05-27T13:14:21;3.80;;;3.50;;
9228;SDS011;4649;42.644;23.284;2023-05-27T13:17:00;4.50;;;3.70;;
9228;SDS011;4649;42.644;23.284;2023-05-27T13:19:33;3.97;;;3.30;;
9228;SDS011;4649;42.644;23.284;2023-05-27T13:22:01;4.00;;;3.60;;
9228;SDS011;4649;42.644;23.284;2023-05-27T13:24:29;3.77;;;3.43;;
9228;SDS011;4649;42.644;23.284;2023-05-27T13:26:57;4.10;;;3.90;;
9228;SDS011;4649;42.644;23.284;2023-05-27T13:29:43;3.73;;;3.30;;
9228;SDS011;4649;42.644;23.284;2023-05-27T13:32:28;4.97;;;3.67;;
9228;SDS011;4649;42.644;23.284;2023-05-27T13:34:56;3.77;;;3.57;;
9228;SDS011;4649;42.644;23.284;2023-05-27T13:37:25;5.07;;;3.47;;
9228;SDS011;4649;42.644;23.284;2023-05-27T13:40:01;4.33;;;3.93;;
9228;SDS011;4649;42.644;23.284;2023-05-27T13:42:34;4.33;;;3.47;;
9228;SDS011;4649;42.644;23.284;2023-05-27T13:45:16;4.03;;;3.83;;
9228;SDS011;4649;42.644;23.284;2023-05-27T13:53:51;5.93;;;3.37;;
9228;SDS011;4649;42.644;23.284;2023-05-27T13:56:33;3.43;;;3.27;;
9228;SDS011;4649;42.644;23.284;2023-05-27T13:59:02;2.97;;;2.77;;
9228;SDS011;4649;42.644;23.284;2023-05-27T14:01:31;3.93;;;3.63;;
9228;SDS011;4649;42.644;23.284;2023-05-27T14:04:13;4.80;;;3.10;;
9228;SDS011;4649;42.644;23.284;2023-05-27T14:06:46;3.50;;;3.27;;
9228;SDS011;4649;42.644;23.284;2023-05-27T14:09:35;3.80;;;3.57;;
9228;SDS011;4649;42.644;23.284;2023-05-27T14:12:25;3.67;;;3.30;;
9228;SDS011;4649;42.644;23.284;2023-05-27T14:14:54;4.50;;;3.40;;
9228;SDS011;4649;42.644;23.284;2023-05-27T14:17:34;3.13;;;2.80;;
9228;SDS011;4649;42.644;23.284;2023-05-27T14:20:12;2.70;;;2.60;;
9228;SDS011;4649;42.644;23.284;2023-05-27T14:26:21;3.93;;;3.63;;
9228;SDS011;4649;42.644;23.284;2023-05-27T14:29:01;3.00;;;2.90;;
9228;SDS011;4649;42.644;23.284;2023-05-27T14:31:47;3.33;;;3.13;;
9228;SDS011;4649;42.644;23.284;2023-05-27T14:34:18;3.97;;;3.33;;
9228;SDS011;4649;42.644;23.284;2023-05-27T14:37:01;4.00;;;3.80;;
9228;SDS011;4649;42.644;23.284;2023-05-27T14:39:29;3.90;;;3.60;;
9228;SDS011;4649;42.644;23.284;2023-05-27T14:41:58;3.43;;;3.30;;
9228;SDS011;4649;42.644;23.284;2023-05-27T14:44:29;3.63;;;3.00;;
9228;SDS011;4649;42.644;23.284;2023-05-27T14:47:00;3.50;;;3.30;;
9228;SDS011;4649;42.644;23.284;2023-05-27T14:49:28;3.93;;;3.10;;
9228;SDS011;4649;42.644;23.284;2023-05-27T14:51:56;5.27;;;3.03;;
9228;SDS011;4649;42.644;23.284;2023-05-27T14:54:26;5.33;;;3.30;;
9228;SDS011;4649;42.644;23.284;2023-05-27T14:57:19;3.27;;;3.17;;
9228;SDS011;4649;42.644;23.284;2023-05-27T15:00:08;4.97;;;3.00;;
9228;SDS011;4649;42.644;23.284;2023-05-27T15:02:55;3.53;;;3.23;;
9228;SDS011;4649;42.644;23.284;2023-05-27T15:05:22;3.13;;;3.00;;
9228;SDS011;4649;42.644;23.284;2023-05-27T15:07:57;3.67;;;3.47;;
9228;SDS011;4649;42.644;23.284;2023-05-27T15:10:24;3.40;;;3.10;;
9228;SDS011;4649;42.644;23.284;2023-05-27T15:12:56;3.53;;;3.33;;
9228;SDS011;4649;42.644;23.284;2023-05-27T15:15:27;3.70;;;3.50;;
9228;SDS011;4649;42.644;23.284;2023-05-27T15:17:54;6.87;;;2.93;;
9228;SDS011;4649;42.644;23.284;2023-05-27T15:20:32;3.13;;;3.03;;
9228;SDS011;4649;42.644;23.284;2023-05-27T15:23:08;5.77;;;2.97;;
9228;SDS011;4649;42.644;23.284;2023-05-27T15:25:36;4.73;;;3.50;;
9228;SDS011;4649;42.644;23.284;2023-05-27T15:28:20;3.73;;;3.43;;
9228;SDS011;4649;42.644;23.284;2023-05-27T15:30:51;4.00;;;3.80;;
9228;SDS011;4649;42.644;23.284;2023-05-27T15:33:34;3.57;;;3.37;;
9228;SDS011;4649;42.644;23.284;2023-05-27T15:36:04;4.33;;;3.37;;
9228;SDS011;4649;42.644;23.284;2023-05-27T15:38:36;3.60;;;3.40;;
9228;SDS011;4649;42.644;23.284;2023-05-27T15:41:09;4.03;;;3.83;;
9228;SDS011;4649;42.644;23.284;2023-05-27T15:43:47;4.10;;;3.90;;
9228;SDS011;4649;42.644;23.284;2023-05-27T15:46:15;4.73;;;3.70;;
9228;SDS011;4649;42.644;23.284;2023-05-27T15:48:54;3.63;;;3.43;;
9228;SDS011;4649;42.644;23.284;2023-05-27T15:51:25;3.90;;;3.80;;
9228;SDS011;4649;42.644;23.284;2023-05-27T15:54:02;3.20;;;3.10;;
9228;SDS011;4649;42.644;23.284;2023-05-27T15:56:37;3.87;;;3.63;;
9228;SDS011;4649;42.644;23.284;2023-05-27T15:59:12;3.73;;;3.10;;
9228;SDS011;4649;42.644;23.284;2023-05-27T16:01:46;3.53;;;3.33;;
9228;SDS011;4649;42.644;23.284;2023-05-27T16:04:17;3.93;;;3.73;;
9228;SDS011;4649;42.644;23.284;2023-05-27T16:07:04;3.90;;;3.60;;
9228;SDS011;4649;42.644;23.284;2023-05-27T16:09:32;3.70;;;3.50;;
9228;SDS011;4649;42.644;23.284;2023-05-27T16:11:59;3.67;;;3.40;;
9228;SDS011;4649;42.644;23.284;2023-05-27T16:14:29;3.53;;;3.10;;
9228;SDS011;4649;42.644;23.284;2023-05-27T16:16:57;4.07;;;3.87;;
9228;SDS011;4649;42.644;23.284;2023-05-27T16:19:30;4.43;;;3.37;;
9228;SDS011;4649;42.644;23.284;2023-05-27T16:22:21;3.47;;;3.27;;
9228;SDS011;4649;42.644;23.284;2023-05-27T16:24:55;4.67;;;3.60;;
9228;SDS011;4649;42.644;23.284;2023-05-27T16:27:23;6.47;;;3.70;;
9228;SDS011;4649;42.644;23.284;2023-05-27T16:29:53;3.87;;;3.67;;
9228;SDS011;4649;42.644;23.284;2023-05-27T16:32:26;3.70;;;3.10;;
9228;SDS011;4649;42.644;23.284;2023-05-27T16:34:54;6.87;;;4.13;;
9228;SDS011;4649;42.644;23.284;2023-05-27T16:37:21;3.57;;;3.43;;
9228;SDS011;4649;42.644;23.284;2023-05-27T16:39:49;3.60;;;3.40;;
9228;SDS011;4649;42.644;23.284;2023-05-27T16:42:19;3.57;;;3.37;;
9228;SDS011;4649;42.644;23.284;2023-05-27T16:44:46;4.47;;;3.67;;
9228;SDS011;4649;42.644;23.284;2023-05-27T16:47:17;5.77;;;3.70;;
9228;SDS011;4649;42.644;23.284;2023-05-27T16:49:44;4.63;;;4.23;;
9228;SDS011;4649;42.644;23.284;2023-05-27T16:52:12;4.43;;;4.13;;
9228;SDS011;4649;42.644;23.284;2023-05-27T16:54:40;4.70;;;4.30;;
9228;SDS011;4649;42.644;23.284;2023-05-27T16:57:17;5.37;;;5.07;;
9228;SDS011;4649;42.644;23.284;2023-05-27T17:00:00;5.57;;;4.20;;
9228;SDS011;4649;42.644;23.284;2023-05-27T17:02:37;4.77;;;4.37;;
9228;SDS011;4649;42.644;23.284;2023-05-27T17:05:16;5.60;;;4.13;;
9228;SDS011;4649;42.644;23.284;2023-05-27T17:07:48;3.83;;;3.57;;
9228;SDS011;4649;42.644;23.284;2023-05-27T17:10:15;4.37;;;4.17;;
9228;SDS011;4649;42.644;23.284;2023-05-27T17:12:44;4.80;;;4.43;;
9228;SDS011;4649;42.644;23.284;2023-05-27T17:15:17;4.77;;;4.20;;
9228;SDS011;4649;42.644;23.284;2023-05-27T17:23:57;4.57;;;4.37;;
9228;SDS011;4649;42.644;23.284;2023-05-27T17:26:29;5.90;;;5.60;;
9228;SDS011;4649;42.644;23.284;2023-05-27T17:29:22;5.20;;;4.80;;
9228;SDS011;4649;42.644;23.284;2023-05-27T17:32:18;5.30;;;4.70;;
9228;SDS011;4649;42.644;23.284;2023-05-27T17:35:21;5.53;;;5.20;;
9228;SDS011;4649;42.644;23.284;2023-05-27T17:38:03;5.13;;;4.90;;
9228;SDS011;4649;42.644;23.284;2023-05-27T17:41:02;5.77;;;5.27;;
9228;SDS011;4649;42.644;23.284;2023-05-27T17:43:31;5.03;;;4.80;;
9228;SDS011;4649;42.644;23.284;2023-05-27T17:46:10;8.10;;;5.07;;
9228;SDS011;4649;42.644;23.284;2023-05-27T17:48:42;5.00;;;4.47;;
9228;SDS011;4649;42.644;23.284;2023-05-27T17:53:55;6.53;;;5.93;;
9228;SDS011;4649;42.644;23.284;2023-05-27T17:57:03;4.50;;;4.30;;
9228;SDS011;4649;42.644;23.284;2023-05-27T17:59:34;5.53;;;5.23;;
9228;SDS011;4649;42.644;23.284;2023-05-27T18:02:15;5.83;;;5.33;;
9228;SDS011;4649;42.644;23.284;2023-05-27T18:05:01;13.57;;;5.37;;
9228;SDS011;4649;42.644;23.284;2023-05-27T18:08:12;6.00;;;5.70;;
9228;SDS011;4649;42.644;23.284;2023-05-27T18:10:46;6.27;;;5.87;;
9228;SDS011;4649;42.644;23.284;2023-05-27T18:13:23;6.03;;;5.53;;
9228;SDS011;4649;42.644;23.284;2023-05-27T18:16:06;6.47;;;6.17;;
9228;SDS011;4649;42.644;23.284;2023-05-27T18:19:02;5.70;;;5.40;;
9228;SDS011;4649;42.644;23.284;2023-05-27T18:21:45;5.87;;;5.57;;
9228;SDS011;4649;42.644;23.284;2023-05-27T18:40:40;6.13;;;5.30;;
9228;SDS011;4649;42.644;23.284;2023-05-27T18:43:09;5.37;;;4.40;;
9228;SDS011;4649;42.644;23.284;2023-05-27T18:45:51;10.47;;;5.63;;
9228;SDS011;4649;42.644;23.284;2023-05-27T18:51:29;5.77;;;5.27;;
9228;SDS011;4649;42.644;23.284;2023-05-27T18:54:13;5.67;;;5.37;;
9228;SDS011;4649;42.644;23.284;2023-05-27T20:01:32;12.23;;;3.17;;
9228;SDS011;4649;42.644;23.284;2023-05-27T20:04:03;4.70;;;3.77;;
9228;SDS011;4649;42.644;23.284;2023-05-27T20:06:45;3.57;;;3.37;;
9228;SDS011;4649;42.644;23.284;2023-05-27T20:09:15;3.50;;;3.30;;
9228;SDS011;4649;42.644;23.284;2023-05-27T20:11:45;2.77;;;2.67;;
9228;SDS011;4649;42.644;23.284;2023-05-27T20:14:25;2.53;;;2.43;;
9228;SDS011;4649;42.644;23.284;2023-05-27T20:16:55;2.20;;;2.10;;
9228;SDS011;4649;42.644;23.284;2023-05-27T20:19:46;2.60;;;2.50;;
9228;SDS011;4649;42.644;23.284;2023-05-27T20:22:15;2.57;;;2.37;;
9228;SDS011;4649;42.644;23.284;2023-05-27T20:24:42;2.00;;;1.80;;
9228;SDS011;4649;42.644;23.284;2023-05-27T20:27:16;1.83;;;1.73;;
9228;SDS011;4649;42.644;23.284;2023-05-27T20:30:07;4.87;;;1.93;;
9228;SDS011;4649;42.644;23.284;2023-05-27T20:32:36;4.27;;;2.30;;
9228;SDS011;4649;42.644;23.284;2023-05-27T20:35:08;3.63;;;1.70;;
9228;SDS011;4649;42.644;23.284;2023-05-27T20:37:51;2.27;;;2.17;;
9228;SDS011;4649;42.644;23.284;2023-05-27T20:40:23;3.33;;;2.60;;
9228;SDS011;4649;42.644;23.284;2023-05-27T20:42:54;2.30;;;2.20;;
9228;SDS011;4649;42.644;23.284;2023-05-27T20:45:25;8.00;;;1.97;;
9228;SDS011;4649;42.644;23.284;2023-05-27T20:47:52;2.40;;;2.20;;
9228;SDS011;4649;42.644;23.284;2023-05-27T20:50:20;2.60;;;2.50;;
9228;SDS011;4649;42.644;23.284;2023-05-27T20:52:52;2.50;;;2.37;;
9228;SDS011;4649;42.644;23.284;2023-05-27T20:59:07;3.20;;;3.00;;
9228;SDS011;4649;42.644;23.284;2023-05-27T21:02:15;2.80;;;2.70;;
9228;SDS011;4649;42.644;23.284;2023-05-27T21:04:45;3.17;;;2.97;;
9228;SDS011;4649;42.644;23.284;2023-05-27T21:07:17;3.93;;;3.50;;
9228;SDS011;4649;42.644;23.284;2023-05-27T21:09:50;13.73;;;3.60;;
9228;SDS011;4649;42.644;23.284;2023-05-27T21:12:18;2.87;;;2.77;;
9228;SDS011;4649;42.644;23.284;2023-05-27T21:14:47;3.20;;;3.10;;
9228;SDS011;4649;42.644;23.284;2023-05-27T21:17:17;3.30;;;3.00;;
9228;SDS011;4649;42.644;23.284;2023-05-27T21:19:47;3.70;;;3.50;;
9228;SDS011;4649;42.644;23.284;2023-05-27T21:22:15;3.53;;;3.30;;
9228;SDS011;4649;42.644;23.284;2023-05-27T21:24:51;3.50;;;3.23;;
9228;SDS011;4649;42.644;23.284;2023-05-27T21:27:38;3.73;;;3.53;;
9228;SDS011;4649;42.644;23.284;2023-05-27T21:30:08;3.93;;;3.73;;
9228;SDS011;4649;42.644;23.284;2023-05-27T21:32:48;3.50;;;3.30;;
9228;SDS011;4649;42.644;23.284;2023-05-27T21:35:24;3.77;;;3.57;;
9228;SDS011;4649;42.644;23.284;2023-05-27T21:38:11;4.10;;;3.90;;
9228;SDS011;4649;42.644;23.284;2023-05-27T21:41:12;3.67;;;3.37;;
9228;SDS011;4649;42.644;23.284;2023-05-27T21:44:06;9.03;;;3.60;;
9228;SDS011;4649;42.644;23.284;2023-05-27T21:47:11;4.00;;;3.80;;
9228;SDS011;4649;42.644;23.284;2023-05-27T22:02:26;4.40;;;4.10;;
9228;SDS011;4649;42.644;23.284;2023-05-27T22:05:31;4.40;;;4.20;;
9228;SDS011;4649;42.644;23.284;2023-05-27T22:08:02;5.00;;;4.70;;
9228;SDS011;4649;42.644;23.284;2023-05-27T22:10:31;4.40;;;4.10;;
9228;SDS011;4649;42.644;23.284;2023-05-27T22:13:03;4.20;;;4.00;;
9228;SDS011;4649;42.644;23.284;2023-05-27T22:21:59;4.63;;;4.30;;
9228;SDS011;4649;42.644;23.284;2023-05-27T22:27:05;4.70;;;4.40;;
9228;SDS011;4649;42.644;23.284;2023-05-27T22:30:10;4.63;;;4.23;;
